sensor_id;sensor_type;location;lat;lon;timestamp;pressure;altitude;pressure_sealevel;temperature;humidity
7026;BME280;3554;42.132;24.786;2022-08-11T00:00:04;99289.00;;;23.85;100.00
7026;BME280;3554;42.132;24.786;2022-08-11T00:02:36;99281.63;;;23.96;100.00
7026;BME280;3554;42.132;24.786;2022-08-11T00:05:07;99252.16;;;23.79;100.00
7026;BME280;3554;42.132;24.786;2022-08-11T00:07:41;99293.75;;;23.91;100.00
7026;BME280;3554;42.132;24.786;2022-08-11T00:10:11;99278.88;;;23.79;100.00
7026;BME280;3554;42.132;24.786;2022-08-11T00:12:40;99278.19;;;23.77;100.00
7026;BME280;3554;42.132;24.786;2022-08-11T00:15:09;99274.16;;;23.73;100.00
7026;BME280;3554;42.132;24.786;2022-08-11T00:17:36;99272.13;;;23.48;100.00
7026;BME280;3554;42.132;24.786;2022-08-11T00:20:06;99271.28;;;23.47;100.00
7026;BME280;3554;42.132;24.786;2022-08-11T00:22:35;99273.69;;;23.41;100.00
7026;BME280;3554;42.132;24.786;2022-08-11T00:25:08;99268.22;;;23.32;100.00
7026;BME280;3554;42.132;24.786;2022-08-11T00:27:37;99264.25;;;23.27;100.00
7026;BME280;3554;42.132;24.786;2022-08-11T00:30:09;99265.56;;;23.32;100.00
7026;BME280;3554;42.132;24.786;2022-08-11T00:32:38;99273.00;;;23.29;100.00
7026;BME280;3554;42.132;24.786;2022-08-11T00:35:08;99268.50;;;23.20;100.00
7026;BME280;3554;42.132;24.786;2022-08-11T00:37:37;99259.63;;;23.19;100.00
7026;BME280;3554;42.132;24.786;2022-08-11T00:40:07;99258.97;;;22.98;100.00
7026;BME280;3554;42.132;24.786;2022-08-11T00:42:48;99266.13;;;23.07;100.00
7026;BME280;3554;42.132;24.786;2022-08-11T00:45:26;99266.03;;;22.99;100.00
7026;BME280;3554;42.132;24.786;2022-08-11T00:48:01;99271.66;;;22.87;100.00
7026;BME280;3554;42.132;24.786;2022-08-11T00:50:40;99276.69;;;22.90;100.00
7026;BME280;3554;42.132;24.786;2022-08-11T00:53:31;99274.31;;;22.87;100.00
7026;BME280;3554;42.132;24.786;2022-08-11T00:56:18;99261.81;;;22.78;100.00
7026;BME280;3554;42.132;24.786;2022-08-11T00:59:25;99267.44;;;22.56;100.00
7026;BME280;3554;42.132;24.786;2022-08-11T01:02:11;99261.22;;;22.46;100.00
7026;BME280;3554;42.132;24.786;2022-08-11T01:20:38;99241.09;;;22.13;100.00
7026;BME280;3554;42.132;24.786;2022-08-11T01:27:12;99244.75;;;22.21;100.00
7026;BME280;3554;42.132;24.786;2022-08-11T01:30:06;99244.50;;;22.24;100.00
7026;BME280;3554;42.132;24.786;2022-08-11T01:36:09;99240.03;;;22.25;100.00
7026;BME280;3554;42.132;24.786;2022-08-11T01:42:13;99248.28;;;22.22;100.00
7026;BME280;3554;42.132;24.786;2022-08-11T01:45:06;99247.16;;;22.24;100.00
7026;BME280;3554;42.132;24.786;2022-08-11T01:47:42;99247.59;;;22.29;100.00
7026;BME280;3554;42.132;24.786;2022-08-11T01:50:24;99248.00;;;22.34;100.00
7026;BME280;3554;42.132;24.786;2022-08-11T01:53:10;99243.25;;;22.28;100.00
7026;BME280;3554;42.132;24.786;2022-08-11T01:55:48;99254.75;;;22.29;100.00
7026;BME280;3554;42.132;24.786;2022-08-11T01:58:28;99256.44;;;22.30;100.00
7026;BME280;3554;42.132;24.786;2022-08-11T02:01:01;99251.81;;;22.42;100.00
7026;BME280;3554;42.132;24.786;2022-08-11T02:03:38;99254.91;;;22.47;100.00
7026;BME280;3554;42.132;24.786;2022-08-11T02:06:13;99248.03;;;22.44;100.00
7026;BME280;3554;42.132;24.786;2022-08-11T02:09:11;99247.19;;;22.44;100.00
7026;BME280;3554;42.132;24.786;2022-08-11T02:11:44;99245.94;;;22.57;100.00
7026;BME280;3554;42.132;24.786;2022-08-11T02:14:19;99236.94;;;22.49;100.00
7026;BME280;3554;42.132;24.786;2022-08-11T02:17:14;99249.06;;;22.62;100.00
7026;BME280;3554;42.132;24.786;2022-08-11T02:19:52;99254.41;;;22.62;100.00
7026;BME280;3554;42.132;24.786;2022-08-11T02:22:45;99255.66;;;22.68;100.00
7026;BME280;3554;42.132;24.786;2022-08-11T02:25:37;99250.16;;;22.60;100.00
7026;BME280;3554;42.132;24.786;2022-08-11T02:28:06;99251.72;;;22.62;100.00
7026;BME280;3554;42.132;24.786;2022-08-11T02:30:38;99249.16;;;22.61;100.00
7026;BME280;3554;42.132;24.786;2022-08-11T02:33:20;99250.31;;;22.68;100.00
7026;BME280;3554;42.132;24.786;2022-08-11T02:35:56;99212.91;;;22.49;100.00
7026;BME280;3554;42.132;24.786;2022-08-11T02:38:28;99249.88;;;22.72;100.00
7026;BME280;3554;42.132;24.786;2022-08-11T02:41:12;99251.16;;;22.78;100.00
7026;BME280;3554;42.132;24.786;2022-08-11T02:44:08;99257.03;;;22.81;100.00
7026;BME280;3554;42.132;24.786;2022-08-11T02:46:47;99262.50;;;22.89;100.00
7026;BME280;3554;42.132;24.786;2022-08-11T02:49:27;99251.16;;;22.87;100.00
7026;BME280;3554;42.132;24.786;2022-08-11T02:52:24;99260.56;;;22.82;100.00
7026;BME280;3554;42.132;24.786;2022-08-11T02:55:12;99265.31;;;22.88;100.00
7026;BME280;3554;42.132;24.786;2022-08-11T02:57:49;99263.91;;;22.84;100.00
7026;BME280;3554;42.132;24.786;2022-08-11T03:00:17;99246.66;;;22.69;100.00
7026;BME280;3554;42.132;24.786;2022-08-11T03:02:51;99265.06;;;22.81;100.00
7026;BME280;3554;42.132;24.786;2022-08-11T03:05:29;99259.84;;;22.80;100.00
7026;BME280;3554;42.132;24.786;2022-08-11T03:08:17;99238.34;;;22.72;100.00
7026;BME280;3554;42.132;24.786;2022-08-11T03:10:55;99268.00;;;22.88;100.00
7026;BME280;3554;42.132;24.786;2022-08-11T03:13:53;99267.03;;;22.89;100.00
7026;BME280;3554;42.132;24.786;2022-08-11T03:16:48;99265.31;;;22.88;100.00
7026;BME280;3554;42.132;24.786;2022-08-11T03:19:23;99261.69;;;22.89;100.00
7026;BME280;3554;42.132;24.786;2022-08-11T03:22:02;99266.59;;;22.93;100.00
7026;BME280;3554;42.132;24.786;2022-08-11T03:24:42;99208.88;;;22.64;100.00
7026;BME280;3554;42.132;24.786;2022-08-11T03:27:26;99243.00;;;22.70;100.00
7026;BME280;3554;42.132;24.786;2022-08-11T03:30:03;99268.00;;;22.88;100.00
7026;BME280;3554;42.132;24.786;2022-08-11T03:32:37;99263.75;;;22.95;100.00
7026;BME280;3554;42.132;24.786;2022-08-11T03:35:08;99253.09;;;22.95;100.00
7026;BME280;3554;42.132;24.786;2022-08-11T03:37:48;99269.41;;;23.01;100.00
7026;BME280;3554;42.132;24.786;2022-08-11T03:40:32;99262.53;;;22.80;100.00
7026;BME280;3554;42.132;24.786;2022-08-11T03:43:27;99258.56;;;22.84;100.00
7026;BME280;3554;42.132;24.786;2022-08-11T03:46:03;99269.25;;;23.03;100.00
7026;BME280;3554;42.132;24.786;2022-08-11T03:48:41;99272.88;;;23.02;100.00
7026;BME280;3554;42.132;24.786;2022-08-11T03:51:18;99259.94;;;23.16;100.00
7026;BME280;3554;42.132;24.786;2022-08-11T03:54:05;99281.09;;;23.56;100.00
7026;BME280;3554;42.132;24.786;2022-08-11T03:57:26;99286.66;;;24.09;100.00
7026;BME280;3554;42.132;24.786;2022-08-11T04:00:16;99294.25;;;24.58;100.00
7026;BME280;3554;42.132;24.786;2022-08-11T04:03:06;99286.06;;;24.95;100.00
7026;BME280;3554;42.132;24.786;2022-08-11T04:06:13;99295.44;;;25.16;100.00
7026;BME280;3554;42.132;24.786;2022-08-11T04:12:13;99304.53;;;26.00;100.00
7026;BME280;3554;42.132;24.786;2022-08-11T04:15:06;99307.72;;;26.37;100.00
7026;BME280;3554;42.132;24.786;2022-08-11T04:18:23;99300.44;;;26.72;100.00
7026;BME280;3554;42.132;24.786;2022-08-11T04:21:19;99307.19;;;27.16;100.00
7026;BME280;3554;42.132;24.786;2022-08-11T04:24:03;99312.75;;;27.38;100.00
7026;BME280;3554;42.132;24.786;2022-08-11T04:27:10;99310.34;;;26.95;100.00
7026;BME280;3554;42.132;24.786;2022-08-11T04:29:55;99303.03;;;26.48;100.00
7026;BME280;3554;42.132;24.786;2022-08-11T04:32:41;99265.34;;;26.07;100.00
7026;BME280;3554;42.132;24.786;2022-08-11T04:35:25;99309.50;;;26.13;100.00
7026;BME280;3554;42.132;24.786;2022-08-11T04:38:17;99313.03;;;25.88;100.00
7026;BME280;3554;42.132;24.786;2022-08-11T04:40:55;99309.00;;;25.92;100.00
7026;BME280;3554;42.132;24.786;2022-08-11T04:47:13;99295.56;;;25.32;100.00
7026;BME280;3554;42.132;24.786;2022-08-11T04:50:21;99305.97;;;25.35;100.00
7026;BME280;3554;42.132;24.786;2022-08-11T04:53:20;99309.16;;;25.57;100.00
7026;BME280;3554;42.132;24.786;2022-08-11T04:56:12;99302.97;;;25.56;100.00
7026;BME280;3554;42.132;24.786;2022-08-11T04:59:19;99297.69;;;25.72;100.00
7026;BME280;3554;42.132;24.786;2022-08-11T05:02:35;99310.53;;;25.94;100.00
7026;BME280;3554;42.132;24.786;2022-08-11T05:05:21;99300.34;;;26.48;100.00
7026;BME280;3554;42.132;24.786;2022-08-11T05:11:51;99309.03;;;26.91;100.00
7026;BME280;3554;42.132;24.786;2022-08-11T05:14:29;99309.00;;;26.75;100.00
7026;BME280;3554;42.132;24.786;2022-08-11T05:17:20;99309.19;;;27.14;100.00
7026;BME280;3554;42.132;24.786;2022-08-11T05:20:10;99309.06;;;27.39;100.00
7026;BME280;3554;42.132;24.786;2022-08-11T05:22:59;99311.38;;;27.18;100.00
7026;BME280;3554;42.132;24.786;2022-08-11T05:25:43;99315.19;;;26.76;100.00
7026;BME280;3554;42.132;24.786;2022-08-11T05:28:32;99314.88;;;26.87;100.00
7026;BME280;3554;42.132;24.786;2022-08-11T05:31:22;99317.09;;;27.15;100.00
7026;BME280;3554;42.132;24.786;2022-08-11T05:34:10;99316.25;;;27.15;100.00
7026;BME280;3554;42.132;24.786;2022-08-11T05:37:01;99313.38;;;27.24;100.00
7026;BME280;3554;42.132;24.786;2022-08-11T05:39:43;99307.69;;;27.11;100.00
7026;BME280;3554;42.132;24.786;2022-08-11T05:42:28;99312.03;;;27.04;100.00
7026;BME280;3554;42.132;24.786;2022-08-11T05:45:16;99317.06;;;26.75;100.00
7026;BME280;3554;42.132;24.786;2022-08-11T05:48:02;99311.59;;;26.43;100.00
7026;BME280;3554;42.132;24.786;2022-08-11T05:50:51;99310.19;;;26.23;100.00
7026;BME280;3554;42.132;24.786;2022-08-11T05:53:44;99317.31;;;26.06;100.00
7026;BME280;3554;42.132;24.786;2022-08-11T05:56:32;99310.34;;;25.62;100.00
7026;BME280;3554;42.132;24.786;2022-08-11T05:59:00;99314.09;;;25.69;100.00
7026;BME280;3554;42.132;24.786;2022-08-11T06:01:29;99298.13;;;25.60;100.00
7026;BME280;3554;42.132;24.786;2022-08-11T06:04:01;99317.69;;;25.52;100.00
7026;BME280;3554;42.132;24.786;2022-08-11T06:06:48;99308.84;;;25.60;100.00
7026;BME280;3554;42.132;24.786;2022-08-11T06:09:21;99309.06;;;25.66;100.00
7026;BME280;3554;42.132;24.786;2022-08-11T06:11:54;99313.78;;;25.72;100.00
7026;BME280;3554;42.132;24.786;2022-08-11T06:14:22;99304.03;;;25.97;100.00
7026;BME280;3554;42.132;24.786;2022-08-11T06:16:54;99315.38;;;26.16;100.00
7026;BME280;3554;42.132;24.786;2022-08-11T06:19:31;99317.09;;;26.33;100.00
7026;BME280;3554;42.132;24.786;2022-08-11T06:22:00;99310.34;;;26.71;100.00
7026;BME280;3554;42.132;24.786;2022-08-11T06:24:28;99318.75;;;27.48;100.00
7026;BME280;3554;42.132;24.786;2022-08-11T06:26:58;99316.75;;;27.51;100.00
7026;BME280;3554;42.132;24.786;2022-08-11T06:29:26;99263.13;;;27.49;100.00
7026;BME280;3554;42.132;24.786;2022-08-11T06:31:56;99294.69;;;28.18;100.00
7026;BME280;3554;42.132;24.786;2022-08-11T06:34:46;99318.31;;;28.77;100.00
7026;BME280;3554;42.132;24.786;2022-08-11T06:37:22;99299.00;;;28.35;100.00
7026;BME280;3554;42.132;24.786;2022-08-11T06:40:00;99315.81;;;28.37;100.00
7026;BME280;3554;42.132;24.786;2022-08-11T06:42:51;99314.06;;;28.52;100.00
7026;BME280;3554;42.132;24.786;2022-08-11T06:45:28;99316.94;;;28.81;100.00
7026;BME280;3554;42.132;24.786;2022-08-11T06:47:57;99321.72;;;28.71;100.00
7026;BME280;3554;42.132;24.786;2022-08-11T06:50:26;99317.22;;;29.09;98.92
7026;BME280;3554;42.132;24.786;2022-08-11T06:53:14;99313.75;;;28.55;100.00
7026;BME280;3554;42.132;24.786;2022-08-11T06:55:45;99293.97;;;28.32;100.00
7026;BME280;3554;42.132;24.786;2022-08-11T06:58:34;99314.06;;;28.52;100.00
7026;BME280;3554;42.132;24.786;2022-08-11T07:01:31;99318.34;;;29.22;100.00
7026;BME280;3554;42.132;24.786;2022-08-11T07:04:04;99320.78;;;28.87;98.71
7026;BME280;3554;42.132;24.786;2022-08-11T07:06:48;99323.47;;;28.87;100.00
7026;BME280;3554;42.132;24.786;2022-08-11T07:12:55;99306.59;;;29.15;99.82
7026;BME280;3554;42.132;24.786;2022-08-11T07:15:43;99294.97;;;29.15;97.35
7026;BME280;3554;42.132;24.786;2022-08-11T07:18:17;99315.91;;;29.05;99.87
7026;BME280;3554;42.132;24.786;2022-08-11T07:21:12;99309.56;;;28.06;100.00
7026;BME280;3554;42.132;24.786;2022-08-11T07:24:01;99321.66;;;28.57;100.00
7026;BME280;3554;42.132;24.786;2022-08-11T07:26:52;99313.84;;;29.15;100.00
7026;BME280;3554;42.132;24.786;2022-08-11T07:29:41;99313.44;;;29.55;97.46
7026;BME280;3554;42.132;24.786;2022-08-11T07:32:21;99324.44;;;29.53;96.71
7026;BME280;3554;42.132;24.786;2022-08-11T07:34:54;99318.84;;;29.40;97.78
7026;BME280;3554;42.132;24.786;2022-08-11T07:37:23;99308.34;;;29.45;96.84
7026;BME280;3554;42.132;24.786;2022-08-11T07:39:51;99315.50;;;29.38;98.81
7026;BME280;3554;42.132;24.786;2022-08-11T07:42:22;99323.25;;;29.56;93.33
7026;BME280;3554;42.132;24.786;2022-08-11T07:44:54;99292.34;;;29.44;94.82
7026;BME280;3554;42.132;24.786;2022-08-11T07:47:41;99321.00;;;29.60;93.59
7026;BME280;3554;42.132;24.786;2022-08-11T07:50:26;99323.97;;;29.73;92.55
7026;BME280;3554;42.132;24.786;2022-08-11T07:53:12;99315.19;;;30.00;89.54
7026;BME280;3554;42.132;24.786;2022-08-11T07:55:41;99320.59;;;29.71;92.54
7026;BME280;3554;42.132;24.786;2022-08-11T07:58:10;99323.25;;;29.56;94.66
7026;BME280;3554;42.132;24.786;2022-08-11T08:00:56;99311.47;;;29.34;93.84
7026;BME280;3554;42.132;24.786;2022-08-11T08:03:43;99302.63;;;29.26;94.82
7026;BME280;3554;42.132;24.786;2022-08-11T08:06:29;99304.28;;;28.59;100.00
7026;BME280;3554;42.132;24.786;2022-08-11T08:09:17;99304.00;;;28.99;100.00
7026;BME280;3554;42.132;24.786;2022-08-11T08:12:03;99308.25;;;29.16;97.45
7026;BME280;3554;42.132;24.786;2022-08-11T08:14:49;99292.16;;;29.45;94.72
7026;BME280;3554;42.132;24.786;2022-08-11T08:17:34;99305.94;;;29.65;93.93
7026;BME280;3554;42.132;24.786;2022-08-11T08:20:20;99302.72;;;29.32;90.74
7026;BME280;3554;42.132;24.786;2022-08-11T08:22:50;99297.00;;;29.13;92.09
7026;BME280;3554;42.132;24.786;2022-08-11T08:25:22;99296.25;;;28.96;94.92
7026;BME280;3554;42.132;24.786;2022-08-11T08:27:50;99292.69;;;29.41;95.88
7026;BME280;3554;42.132;24.786;2022-08-11T08:30:17;99284.88;;;29.83;95.93
7026;BME280;3554;42.132;24.786;2022-08-11T08:33:02;99294.31;;;30.23;91.71
7026;BME280;3554;42.132;24.786;2022-08-11T08:35:31;99291.78;;;30.21;87.28
7026;BME280;3554;42.132;24.786;2022-08-11T08:37:58;99291.34;;;30.18;89.89
7026;BME280;3554;42.132;24.786;2022-08-11T08:40:26;99288.91;;;30.37;89.23
7026;BME280;3554;42.132;24.786;2022-08-11T08:42:56;99277.28;;;30.08;93.47
7026;BME280;3554;42.132;24.786;2022-08-11T08:45:25;99273.66;;;30.15;89.16
7026;BME280;3554;42.132;24.786;2022-08-11T08:47:58;99276.25;;;30.23;85.86
7026;BME280;3554;42.132;24.786;2022-08-11T08:50:29;99276.03;;;29.37;90.44
7026;BME280;3554;42.132;24.786;2022-08-11T08:53:13;99279.19;;;29.41;92.15
7026;BME280;3554;42.132;24.786;2022-08-11T08:55:44;99253.50;;;29.30;92.04
7026;BME280;3554;42.132;24.786;2022-08-11T08:58:13;99276.69;;;29.39;93.97
7026;BME280;3554;42.132;24.786;2022-08-11T09:00:43;99278.53;;;29.76;92.83
7026;BME280;3554;42.132;24.786;2022-08-11T09:03:10;99281.19;;;29.62;88.30
7026;BME280;3554;42.132;24.786;2022-08-11T09:05:39;99269.78;;;29.74;92.82
7026;BME280;3554;42.132;24.786;2022-08-11T09:08:07;99254.09;;;30.13;91.65
7026;BME280;3554;42.132;24.786;2022-08-11T09:10:36;99258.53;;;30.35;84.69
7026;BME280;3554;42.132;24.786;2022-08-11T09:13:05;99261.63;;;30.32;82.48
7026;BME280;3554;42.132;24.786;2022-08-11T09:15:33;99272.81;;;30.15;85.47
7026;BME280;3554;42.132;24.786;2022-08-11T09:18:02;99265.56;;;30.01;82.74
7026;BME280;3554;42.132;24.786;2022-08-11T09:20:35;99246.31;;;28.86;89.27
7026;BME280;3554;42.132;24.786;2022-08-11T09:23:05;99265.78;;;28.73;89.46
7026;BME280;3554;42.132;24.786;2022-08-11T09:25:52;99261.59;;;28.40;91.65
7026;BME280;3554;42.132;24.786;2022-08-11T09:28:38;99246.75;;;28.75;89.88
7026;BME280;3554;42.132;24.786;2022-08-11T09:31:07;99248.84;;;28.87;88.19
7026;BME280;3554;42.132;24.786;2022-08-11T09:33:37;99247.19;;;29.01;90.39
7026;BME280;3554;42.132;24.786;2022-08-11T09:36:06;99240.31;;;29.21;82.87
7026;BME280;3554;42.132;24.786;2022-08-11T09:38:49;99243.44;;;29.76;80.66
7026;BME280;3554;42.132;24.786;2022-08-11T09:41:35;99237.78;;;30.21;76.25
7026;BME280;3554;42.132;24.786;2022-08-11T09:44:04;99232.25;;;30.65;72.57
7026;BME280;3554;42.132;24.786;2022-08-11T09:46:49;99231.38;;;31.00;72.17
7026;BME280;3554;42.132;24.786;2022-08-11T09:49:18;99206.22;;;31.06;67.94
7026;BME280;3554;42.132;24.786;2022-08-11T09:51:46;99237.38;;;30.24;72.37
7026;BME280;3554;42.132;24.786;2022-08-11T09:54:16;99213.88;;;30.04;76.10
7026;BME280;3554;42.132;24.786;2022-08-11T09:56:45;99219.31;;;29.89;78.85
7026;BME280;3554;42.132;24.786;2022-08-11T09:59:29;99224.00;;;30.16;78.09
7026;BME280;3554;42.132;24.786;2022-08-11T10:01:59;99216.44;;;30.26;77.41
7026;BME280;3554;42.132;24.786;2022-08-11T10:04:32;99223.16;;;30.51;78.69
7026;BME280;3554;42.132;24.786;2022-08-11T10:07:03;99214.56;;;30.41;74.40
7026;BME280;3554;42.132;24.786;2022-08-11T10:09:37;99225.88;;;30.51;72.20
7026;BME280;3554;42.132;24.786;2022-08-11T10:12:09;99216.16;;;30.21;72.31
7026;BME280;3554;42.132;24.786;2022-08-11T10:14:41;99202.19;;;29.82;78.03
7026;BME280;3554;42.132;24.786;2022-08-11T10:17:29;99212.56;;;30.50;70.62
7026;BME280;3554;42.132;24.786;2022-08-11T10:19:58;99204.97;;;30.60;69.74
7026;BME280;3554;42.132;24.786;2022-08-11T10:22:28;99208.25;;;30.77;71.39
7026;BME280;3554;42.132;24.786;2022-08-11T10:25:14;99213.56;;;30.85;71.03
7026;BME280;3554;42.132;24.786;2022-08-11T10:28:02;99220.63;;;31.34;64.01
7026;BME280;3554;42.132;24.786;2022-08-11T10:30:30;99219.69;;;31.48;63.23
7026;BME280;3554;42.132;24.786;2022-08-11T10:33:15;99212.38;;;31.21;68.89
7026;BME280;3554;42.132;24.786;2022-08-11T10:36:02;99212.53;;;31.41;68.92
7026;BME280;3554;42.132;24.786;2022-08-11T10:38:30;99211.50;;;31.42;62.72
7026;BME280;3554;42.132;24.786;2022-08-11T10:40:59;99205.34;;;30.99;68.67
7026;BME280;3554;42.132;24.786;2022-08-11T10:43:59;99202.44;;;30.80;71.19
7026;BME280;3554;42.132;24.786;2022-08-11T10:46:28;99198.06;;;31.00;70.41
7026;BME280;3554;42.132;24.786;2022-08-11T10:49:12;99180.56;;;31.23;65.10
7026;BME280;3554;42.132;24.786;2022-08-11T10:51:40;99206.50;;;31.11;59.53
7026;BME280;3554;42.132;24.786;2022-08-11T10:54:25;99193.69;;;30.99;56.89
7026;BME280;3554;42.132;24.786;2022-08-11T10:57:10;99188.38;;;30.63;59.16
7026;BME280;3554;42.132;24.786;2022-08-11T10:59:56;99191.31;;;30.89;59.65
7026;BME280;3554;42.132;24.786;2022-08-11T11:02:24;99184.00;;;31.11;60.99
7026;BME280;3554;42.132;24.786;2022-08-11T11:04:59;99192.22;;;30.96;56.87
7026;BME280;3554;42.132;24.786;2022-08-11T11:07:36;99193.06;;;30.97;52.55
7026;BME280;3554;42.132;24.786;2022-08-11T11:10:05;99182.63;;;30.73;51.29
7026;BME280;3554;42.132;24.786;2022-08-11T11:12:38;99169.91;;;30.45;55.47
7026;BME280;3554;42.132;24.786;2022-08-11T11:15:28;99170.75;;;31.22;53.30
7026;BME280;3554;42.132;24.786;2022-08-11T11:18:18;99175.91;;;31.79;51.53
7026;BME280;3554;42.132;24.786;2022-08-11T11:20:49;99170.78;;;31.97;52.10
7026;BME280;3554;42.132;24.786;2022-08-11T11:23:20;99168.28;;;31.96;52.36
7026;BME280;3554;42.132;24.786;2022-08-11T11:32:03;99162.97;;;30.58;54.31
7026;BME280;3554;42.132;24.786;2022-08-11T11:34:50;99154.41;;;30.33;54.46
7026;BME280;3554;42.132;24.786;2022-08-11T11:37:24;99151.31;;;30.36;57.40
7026;BME280;3554;42.132;24.786;2022-08-11T11:39:52;99135.47;;;30.54;56.71
7026;BME280;3554;42.132;24.786;2022-08-11T11:42:22;99153.22;;;30.84;53.78
7026;BME280;3554;42.132;24.786;2022-08-11T11:44:49;99149.66;;;31.39;50.66
7026;BME280;3554;42.132;24.786;2022-08-11T11:47:19;99126.47;;;31.64;51.83
7026;BME280;3554;42.132;24.786;2022-08-11T11:49:48;99147.94;;;32.19;49.63
7026;BME280;3554;42.132;24.786;2022-08-11T11:52:17;99146.53;;;32.49;45.55
7026;BME280;3554;42.132;24.786;2022-08-11T11:54:45;99132.56;;;32.46;45.66
7026;BME280;3554;42.132;24.786;2022-08-11T11:57:16;99124.13;;;32.02;44.08
7026;BME280;3554;42.132;24.786;2022-08-11T12:00:01;99137.38;;;31.84;44.68
7026;BME280;3554;42.132;24.786;2022-08-11T12:02:49;99137.03;;;31.18;45.25
7026;BME280;3554;42.132;24.786;2022-08-11T12:05:17;99129.38;;;30.94;44.45
7026;BME280;3554;42.132;24.786;2022-08-11T12:07:44;99114.59;;;30.41;43.79
7026;BME280;3554;42.132;24.786;2022-08-11T12:10:30;99125.47;;;30.76;45.52
7026;BME280;3554;42.132;24.786;2022-08-11T12:12:58;99110.84;;;30.91;45.12
7026;BME280;3554;42.132;24.786;2022-08-11T12:15:44;99118.72;;;30.86;46.02
7026;BME280;3554;42.132;24.786;2022-08-11T12:18:13;99108.72;;;31.14;46.29
7026;BME280;3554;42.132;24.786;2022-08-11T12:20:42;99112.91;;;31.23;46.52
7026;BME280;3554;42.132;24.786;2022-08-11T12:23:10;99007.88;;;30.59;46.84
7026;BME280;3554;42.132;24.786;2022-08-11T12:25:56;99114.63;;;30.97;47.08
7026;BME280;3554;42.132;24.786;2022-08-11T12:28:41;99096.41;;;30.57;47.76
7026;BME280;3554;42.132;24.786;2022-08-11T12:31:08;99115.53;;;30.34;45.99
7026;BME280;3554;42.132;24.786;2022-08-11T12:33:38;99109.19;;;30.69;45.13
7026;BME280;3554;42.132;24.786;2022-08-11T12:36:08;99115.09;;;31.07;43.74
7026;BME280;3554;42.132;24.786;2022-08-11T12:38:41;99106.09;;;30.93;45.11
7026;BME280;3554;42.132;24.786;2022-08-11T12:41:10;99111.28;;;30.95;45.73
7026;BME280;3554;42.132;24.786;2022-08-11T12:43:55;99109.56;;;31.21;44.43
7026;BME280;3554;42.132;24.786;2022-08-11T12:46:44;99106.31;;;31.32;42.30
7026;BME280;3554;42.132;24.786;2022-08-11T12:49:16;99103.75;;;31.59;43.57
7026;BME280;3554;42.132;24.786;2022-08-11T12:52:04;99106.81;;;31.96;40.65
7026;BME280;3554;42.132;24.786;2022-08-11T12:54:37;99110.22;;;31.58;39.30
7026;BME280;3554;42.132;24.786;2022-08-11T12:57:11;99103.81;;;31.85;38.60
7026;BME280;3554;42.132;24.786;2022-08-11T12:59:58;99098.31;;;32.19;39.64
7026;BME280;3554;42.132;24.786;2022-08-11T13:02:43;99105.03;;;32.36;39.93
7026;BME280;3554;42.132;24.786;2022-08-11T13:05:31;99087.53;;;32.51;40.05
7026;BME280;3554;42.132;24.786;2022-08-11T13:08:00;99085.81;;;32.11;39.84
7026;BME280;3554;42.132;24.786;2022-08-11T13:10:29;99090.63;;;31.62;39.75
7026;BME280;3554;42.132;24.786;2022-08-11T13:13:16;99093.69;;;32.06;40.61
7026;BME280;3554;42.132;24.786;2022-08-11T13:15:45;99092.09;;;32.51;39.78
7026;BME280;3554;42.132;24.786;2022-08-11T13:18:15;99098.38;;;32.71;40.38
7026;BME280;3554;42.132;24.786;2022-08-11T13:20:44;99090.03;;;32.60;41.22
7026;BME280;3554;42.132;24.786;2022-08-11T13:23:14;99086.69;;;32.71;41.31
7026;BME280;3554;42.132;24.786;2022-08-11T13:25:42;99083.31;;;32.88;41.02
7026;BME280;3554;42.132;24.786;2022-08-11T13:28:09;99095.47;;;32.66;41.31
7026;BME280;3554;42.132;24.786;2022-08-11T13:30:37;99084.59;;;32.53;41.36
7026;BME280;3554;42.132;24.786;2022-08-11T13:33:22;99087.53;;;32.45;41.20
7026;BME280;3554;42.132;24.786;2022-08-11T13:35:52;99085.84;;;32.44;41.70
7026;BME280;3554;42.132;24.786;2022-08-11T13:38:21;99081.50;;;32.43;40.24
7026;BME280;3554;42.132;24.786;2022-08-11T13:40:51;99080.19;;;32.19;41.73
7026;BME280;3554;42.132;24.786;2022-08-11T13:43:19;99062.53;;;32.43;41.07
7026;BME280;3554;42.132;24.786;2022-08-11T13:45:48;99073.13;;;32.51;39.70
7026;BME280;3554;42.132;24.786;2022-08-11T13:48:17;99066.03;;;32.30;39.43
7026;BME280;3554;42.132;24.786;2022-08-11T13:50:44;99060.78;;;32.22;40.41
7026;BME280;3554;42.132;24.786;2022-08-11T13:53:31;99075.19;;;32.23;40.69
7026;BME280;3554;42.132;24.786;2022-08-11T13:55:58;99068.72;;;32.37;41.01
7026;BME280;3554;42.132;24.786;2022-08-11T13:58:26;98954.47;;;31.81;38.94
7026;BME280;3554;42.132;24.786;2022-08-11T14:00:53;99077.53;;;32.52;38.75
7026;BME280;3554;42.132;24.786;2022-08-11T14:03:24;99056.84;;;32.18;42.02
7026;BME280;3554;42.132;24.786;2022-08-11T14:05:53;98942.16;;;31.46;44.06
7026;BME280;3554;42.132;24.786;2022-08-11T14:08:25;99046.41;;;32.02;46.11
7026;BME280;3554;42.132;24.786;2022-08-11T14:10:55;99050.38;;;32.00;44.96
7026;BME280;3554;42.132;24.786;2022-08-11T14:13:41;99074.88;;;31.72;46.15
7026;BME280;3554;42.132;24.786;2022-08-11T14:16:11;99055.91;;;31.79;46.97
7026;BME280;3554;42.132;24.786;2022-08-11T14:18:44;99059.44;;;31.73;46.74
7026;BME280;3554;42.132;24.786;2022-08-11T14:21:15;99054.81;;;31.53;46.33
7026;BME280;3554;42.132;24.786;2022-08-11T14:24:01;99072.38;;;31.30;47.22
7026;BME280;3554;42.132;24.786;2022-08-11T14:26:30;99061.84;;;31.07;47.94
7026;BME280;3554;42.132;24.786;2022-08-11T14:29:07;99065.72;;;31.32;47.68
7026;BME280;3554;42.132;24.786;2022-08-11T14:31:37;99058.78;;;31.64;46.95
7026;BME280;3554;42.132;24.786;2022-08-11T14:34:06;99057.44;;;31.40;45.80
7026;BME280;3554;42.132;24.786;2022-08-11T14:36:36;99063.28;;;31.37;46.28
7026;BME280;3554;42.132;24.786;2022-08-11T14:39:06;99071.59;;;31.36;46.32
7026;BME280;3554;42.132;24.786;2022-08-11T14:41:37;99065.78;;;31.39;45.61
7026;BME280;3554;42.132;24.786;2022-08-11T14:44:23;99007.16;;;31.12;44.54
7026;BME280;3554;42.132;24.786;2022-08-11T14:47:08;99076.50;;;31.26;44.35
7026;BME280;3554;42.132;24.786;2022-08-11T14:49:40;99071.88;;;31.13;43.84